Eagle, CO

9:12 AM MDT on September 02, 2014 (GMT -0600)
The Orchard | Change Station
CLOSE
Current Station
Personal Weather Station
Location: Eagle, CO
Elevation: 6700 ft
Nearby Weather Stations

Elev 6700 ft 39.64 °N, 106.82 °W | Updated 1 second ago

Clear
Clear
50.2 °F
Feels Like 50.2 °F
N
0.0
Wind Variable Wind from SE
Gusts 0.0 mph

Today
High -- | Low -- °F
--% Chance of Precip.
Yesterday
High -- | Low -- °F
Precip. -- in
6:36 AM 7:36 PM
First Quarter, 52% visible
Pressure 30.30 in
Visibility 10.0 miles
Clouds Clear
Dew Point 37 °F
Humidity 61%
Rainfall 0.00 in
Snow Depth 21 in
UV 1 out of 12
Pollen 9.20 out of 12
Air Quality Not available.
Flu Activity Not available.
METAR KEGE 021350Z 00000KT 10SM SKC 06/02 A3030

More Conditions Fewer Conditions

Pressure 30.30 in
Visibility 10.0 miles
Clouds Clear
Dew Point 37 °F
Humidity 61%
Rainfall 0.00 in
Snow Depth 21 in
UV 1 out of 12
Pollen 9.20 out of 12
Air Quality Not available.
Flu Activity Not available.
METAR KEGE 021350Z 00000KT 10SM SKC 06/02 A3030

More Conditions Fewer Conditions

10-Day Weather Forecast

Almanac

Astronomy

Sep. 02, 2014 Rise Set
Actual Time 6:36 AM MDT 7:36 PM MDT
Civil Twilight 6:08 AM MDT 8:04 PM MDT
Nautical Twilight 5:36 AM MDT 8:36 PM MDT
Astronomical Twilight 5:01 AM MDT 9:10 PM MDT
Moon 2:22 PM MDT No Moon Set
Length of Visible Light 13h 55m
Length of Day
13h 00m
Tomorrow will be 2m 31s shorter.
First Quarter, 52% of the Moon is Illuminated
Today
First Quarter
Sep 8
Full
Sep 15
Last Quarter
Sep 24
New
Oct 1
First Quarter

Today's Extremes

State Highs State Lows

Community

WunderPhotos

Upload Photos

1,749,690 photos uploaded!

WunderBlogs® & News

Nearby

Snow Depth

Station Depth Elevation
Mccoy Park 21 in 9480 ft
Vail Mountain 87 in 10300 ft
Kiln 1 in 9600 ft
Nast Lake 0 in 8700 ft
Bison Lake 0 in 10880 ft

Earthquake Activity

City Distance Mag. Time & Date
No recent earthquake activity has been reported nearby.
Minimum magnitude displayed is 2.5.

Coastal Water Temperatures

Place Temperature
No Stations Reporting

Nearby Weather Stations